sensor_id;sensor_type;location;lat;lon;timestamp;P1;durP1;ratioP1;P2;durP2;ratioP2
13785;SDS011;47474;48.824;9.384;2023-07-13T00:13:11;2.70;;;1.40;;
13785;SDS011;47474;48.824;9.384;2023-07-13T00:15:38;1.63;;;1.50;;
13785;SDS011;47474;48.824;9.384;2023-07-13T00:18:05;2.70;;;1.65;;
13785;SDS011;47474;48.824;9.384;2023-07-13T00:20:31;1.52;;;1.17;;
13785;SDS011;47474;48.824;9.384;2023-07-13T00:22:58;1.63;;;1.50;;
13785;SDS011;47474;48.824;9.384;2023-07-13T00:25:25;4.47;;;1.60;;
13785;SDS011;47474;48.824;9.384;2023-07-13T00:27:53;1.48;;;1.38;;
13785;SDS011;47474;48.824;9.384;2023-07-13T00:30:21;2.35;;;1.50;;
13785;SDS011;47474;48.824;9.384;2023-07-13T00:32:47;1.73;;;1.40;;
13785;SDS011;47474;48.824;9.384;2023-07-13T00:35:14;1.80;;;1.30;;
13785;SDS011;47474;48.824;9.384;2023-07-13T00:37:41;4.22;;;1.35;;
13785;SDS011;47474;48.824;9.384;2023-07-13T00:40:09;1.63;;;1.27;;
13785;SDS011;47474;48.824;9.384;2023-07-13T00:42:37;2.42;;;1.40;;
13785;SDS011;47474;48.824;9.384;2023-07-13T00:45:04;1.98;;;1.50;;
13785;SDS011;47474;48.824;9.384;2023-07-13T00:47:34;3.15;;;1.58;;
13785;SDS011;47474;48.824;9.384;2023-07-13T00:50:00;2.80;;;1.70;;
13785;SDS011;47474;48.824;9.384;2023-07-13T00:52:27;4.50;;;1.45;;
13785;SDS011;47474;48.824;9.384;2023-07-13T00:54:54;2.40;;;1.40;;
13785;SDS011;47474;48.824;9.384;2023-07-13T00:57:23;5.65;;;1.50;;
13785;SDS011;47474;48.824;9.384;2023-07-13T00:59:50;2.70;;;1.50;;
13785;SDS011;47474;48.824;9.384;2023-07-13T01:02:18;2.58;;;1.35;;
13785;SDS011;47474;48.824;9.384;2023-07-13T01:04:48;2.15;;;1.48;;
13785;SDS011;47474;48.824;9.384;2023-07-13T01:07:14;2.90;;;1.50;;
13785;SDS011;47474;48.824;9.384;2023-07-13T01:09:41;3.58;;;2.20;;
13785;SDS011;47474;48.824;9.384;2023-07-13T01:12:08;2.58;;;1.60;;
13785;SDS011;47474;48.824;9.384;2023-07-13T01:14:34;2.67;;;1.35;;
13785;SDS011;47474;48.824;9.384;2023-07-13T01:17:01;2.83;;;1.60;;
13785;SDS011;47474;48.824;9.384;2023-07-13T01:19:31;2.00;;;1.80;;
13785;SDS011;47474;48.824;9.384;2023-07-13T01:22:02;1.50;;;1.25;;
13785;SDS011;47474;48.824;9.384;2023-07-13T01:24:29;1.90;;;1.27;;
13785;SDS011;47474;48.824;9.384;2023-07-13T01:26:56;2.17;;;1.23;;
13785;SDS011;47474;48.824;9.384;2023-07-13T01:29:22;2.15;;;1.40;;
13785;SDS011;47474;48.824;9.384;2023-07-13T01:31:49;2.15;;;1.50;;
13785;SDS011;47474;48.824;9.384;2023-07-13T01:34:16;2.03;;;1.35;;
13785;SDS011;47474;48.824;9.384;2023-07-13T01:36:42;2.25;;;1.25;;
13785;SDS011;47474;48.824;9.384;2023-07-13T01:39:10;2.95;;;1.42;;
13785;SDS011;47474;48.824;9.384;2023-07-13T01:41:37;1.50;;;1.40;;
13785;SDS011;47474;48.824;9.384;2023-07-13T01:44:04;3.15;;;1.50;;
13785;SDS011;47474;48.824;9.384;2023-07-13T01:46:30;3.22;;;1.85;;
13785;SDS011;47474;48.824;9.384;2023-07-13T01:48:57;4.15;;;1.90;;
13785;SDS011;47474;48.824;9.384;2023-07-13T01:51:24;5.35;;;1.50;;
13785;SDS011;47474;48.824;9.384;2023-07-13T01:53:52;1.70;;;1.60;;
13785;SDS011;47474;48.824;9.384;2023-07-13T01:56:20;1.90;;;1.80;;
13785;SDS011;47474;48.824;9.384;2023-07-13T01:58:46;3.95;;;1.55;;
13785;SDS011;47474;48.824;9.384;2023-07-13T02:01:13;3.17;;;1.73;;
13785;SDS011;47474;48.824;9.384;2023-07-13T02:03:40;5.18;;;1.95;;
13785;SDS011;47474;48.824;9.384;2023-07-13T02:06:07;2.85;;;1.90;;
13785;SDS011;47474;48.824;9.384;2023-07-13T02:08:33;3.40;;;1.50;;
13785;SDS011;47474;48.824;9.384;2023-07-13T02:11:00;2.90;;;1.80;;
13785;SDS011;47474;48.824;9.384;2023-07-13T02:13:29;2.47;;;1.60;;
13785;SDS011;47474;48.824;9.384;2023-07-13T02:15:56;1.70;;;1.40;;
13785;SDS011;47474;48.824;9.384;2023-07-13T02:18:22;1.90;;;1.40;;
13785;SDS011;47474;48.824;9.384;2023-07-13T02:20:49;4.68;;;1.48;;
13785;SDS011;47474;48.824;9.384;2023-07-13T02:23:16;1.92;;;1.35;;
13785;SDS011;47474;48.824;9.384;2023-07-13T02:25:42;2.05;;;1.50;;
13785;SDS011;47474;48.824;9.384;2023-07-13T02:28:09;4.70;;;1.88;;
13785;SDS011;47474;48.824;9.384;2023-07-13T02:30:37;1.88;;;1.35;;
13785;SDS011;47474;48.824;9.384;2023-07-13T02:33:04;2.10;;;1.55;;
13785;SDS011;47474;48.824;9.384;2023-07-13T02:35:31;3.95;;;1.35;;
13785;SDS011;47474;48.824;9.384;2023-07-13T02:37:57;2.85;;;1.60;;
13785;SDS011;47474;48.824;9.384;2023-07-13T02:40:24;1.67;;;1.58;;
13785;SDS011;47474;48.824;9.384;2023-07-13T02:42:51;2.53;;;1.65;;
13785;SDS011;47474;48.824;9.384;2023-07-13T02:45:17;3.15;;;1.60;;
13785;SDS011;47474;48.824;9.384;2023-07-13T02:47:45;4.35;;;1.45;;
13785;SDS011;47474;48.824;9.384;2023-07-13T02:50:12;2.92;;;1.75;;
13785;SDS011;47474;48.824;9.384;2023-07-13T02:52:38;3.40;;;1.77;;
13785;SDS011;47474;48.824;9.384;2023-07-13T02:55:05;2.42;;;1.85;;
13785;SDS011;47474;48.824;9.384;2023-07-13T02:57:32;2.47;;;1.83;;
13785;SDS011;47474;48.824;9.384;2023-07-13T02:59:59;3.88;;;1.73;;
13785;SDS011;47474;48.824;9.384;2023-07-13T03:02:25;3.88;;;1.80;;
13785;SDS011;47474;48.824;9.384;2023-07-13T03:04:54;3.10;;;1.40;;
13785;SDS011;47474;48.824;9.384;2023-07-13T03:07:21;2.90;;;1.70;;
13785;SDS011;47474;48.824;9.384;2023-07-13T03:09:48;2.38;;;1.33;;
13785;SDS011;47474;48.824;9.384;2023-07-13T03:12:14;3.10;;;1.60;;
13785;SDS011;47474;48.824;9.384;2023-07-13T03:14:41;3.70;;;1.88;;
13785;SDS011;47474;48.824;9.384;2023-07-13T03:17:07;2.58;;;1.50;;
13785;SDS011;47474;48.824;9.384;2023-07-13T03:19:34;6.22;;;2.00;;
13785;SDS011;47474;48.824;9.384;2023-07-13T03:22:02;4.00;;;1.73;;
13785;SDS011;47474;48.824;9.384;2023-07-13T03:24:29;2.83;;;2.03;;
13785;SDS011;47474;48.824;9.384;2023-07-13T03:26:55;2.47;;;1.52;;
13785;SDS011;47474;48.824;9.384;2023-07-13T03:29:22;3.42;;;1.77;;
13785;SDS011;47474;48.824;9.384;2023-07-13T03:31:48;1.88;;;1.42;;
13785;SDS011;47474;48.824;9.384;2023-07-13T03:34:15;2.13;;;1.63;;
13785;SDS011;47474;48.824;9.384;2023-07-13T03:36:41;2.25;;;1.50;;
13785;SDS011;47474;48.824;9.384;2023-07-13T03:39:09;1.73;;;1.58;;
13785;SDS011;47474;48.824;9.384;2023-07-13T03:41:36;4.20;;;2.40;;
13785;SDS011;47474;48.824;9.384;2023-07-13T03:44:03;3.85;;;1.95;;
13785;SDS011;47474;48.824;9.384;2023-07-13T03:46:29;1.92;;;1.67;;
13785;SDS011;47474;48.824;9.384;2023-07-13T03:48:56;3.22;;;1.85;;
13785;SDS011;47474;48.824;9.384;2023-07-13T03:51:23;3.55;;;2.15;;
13785;SDS011;47474;48.824;9.384;2023-07-13T03:53:49;6.35;;;2.05;;
13785;SDS011;47474;48.824;9.384;2023-07-13T03:56:17;2.38;;;1.77;;
13785;SDS011;47474;48.824;9.384;2023-07-13T03:58:45;2.42;;;1.70;;
13785;SDS011;47474;48.824;9.384;2023-07-13T04:01:13;3.10;;;1.80;;
13785;SDS011;47474;48.824;9.384;2023-07-13T04:03:41;2.28;;;1.90;;
13785;SDS011;47474;48.824;9.384;2023-07-13T04:06:14;3.17;;;1.67;;
13785;SDS011;47474;48.824;9.384;2023-07-13T04:08:46;3.17;;;1.90;;
13785;SDS011;47474;48.824;9.384;2023-07-13T04:11:13;2.78;;;1.90;;
13785;SDS011;47474;48.824;9.384;2023-07-13T04:13:41;3.13;;;1.80;;
13785;SDS011;47474;48.824;9.384;2023-07-13T04:16:07;2.38;;;1.88;;
13785;SDS011;47474;48.824;9.384;2023-07-13T04:18:34;3.15;;;1.60;;
13785;SDS011;47474;48.824;9.384;2023-07-13T04:21:00;3.97;;;1.77;;
13785;SDS011;47474;48.824;9.384;2023-07-13T04:23:27;2.13;;;1.67;;
13785;SDS011;47474;48.824;9.384;2023-07-13T04:25:53;2.47;;;1.50;;
13785;SDS011;47474;48.824;9.384;2023-07-13T04:28:20;3.17;;;1.70;;
13785;SDS011;47474;48.824;9.384;2023-07-13T04:30:50;3.00;;;1.65;;
13785;SDS011;47474;48.824;9.384;2023-07-13T04:33:16;2.00;;;1.73;;
13785;SDS011;47474;48.824;9.384;2023-07-13T04:35:47;1.98;;;1.60;;
13785;SDS011;47474;48.824;9.384;2023-07-13T04:38:13;3.50;;;1.75;;
13785;SDS011;47474;48.824;9.384;2023-07-13T04:40:42;2.25;;;1.80;;
13785;SDS011;47474;48.824;9.384;2023-07-13T04:43:08;3.78;;;1.88;;
13785;SDS011;47474;48.824;9.384;2023-07-13T04:45:35;4.90;;;1.98;;
13785;SDS011;47474;48.824;9.384;2023-07-13T04:48:03;3.50;;;1.90;;
13785;SDS011;47474;48.824;9.384;2023-07-13T04:50:31;1.77;;;1.67;;
13785;SDS011;47474;48.824;9.384;2023-07-13T04:52:57;2.63;;;2.00;;
13785;SDS011;47474;48.824;9.384;2023-07-13T04:55:24;3.50;;;2.03;;
13785;SDS011;47474;48.824;9.384;2023-07-13T04:57:55;5.05;;;2.28;;
13785;SDS011;47474;48.824;9.384;2023-07-13T05:00:23;2.20;;;2.00;;
13785;SDS011;47474;48.824;9.384;2023-07-13T05:02:50;3.25;;;1.83;;
13785;SDS011;47474;48.824;9.384;2023-07-13T05:05:18;2.60;;;2.08;;
13785;SDS011;47474;48.824;9.384;2023-07-13T05:07:45;2.80;;;2.00;;
13785;SDS011;47474;48.824;9.384;2023-07-13T05:10:11;3.75;;;2.55;;
13785;SDS011;47474;48.824;9.384;2023-07-13T05:12:38;2.80;;;2.20;;
13785;SDS011;47474;48.824;9.384;2023-07-13T05:15:05;6.95;;;2.67;;
13785;SDS011;47474;48.824;9.384;2023-07-13T05:17:33;3.17;;;2.65;;
13785;SDS011;47474;48.824;9.384;2023-07-13T05:19:59;5.93;;;3.50;;
13785;SDS011;47474;48.824;9.384;2023-07-13T05:22:27;4.15;;;3.35;;
13785;SDS011;47474;48.824;9.384;2023-07-13T05:24:54;4.30;;;3.63;;
13785;SDS011;47474;48.824;9.384;2023-07-13T05:27:20;7.22;;;4.25;;
13785;SDS011;47474;48.824;9.384;2023-07-13T05:29:48;6.07;;;3.83;;
13785;SDS011;47474;48.824;9.384;2023-07-13T05:32:14;4.68;;;2.92;;
13785;SDS011;47474;48.824;9.384;2023-07-13T05:34:41;5.88;;;3.13;;
13785;SDS011;47474;48.824;9.384;2023-07-13T05:37:07;4.80;;;3.55;;
13785;SDS011;47474;48.824;9.384;2023-07-13T05:39:36;4.78;;;3.05;;
13785;SDS011;47474;48.824;9.384;2023-07-13T05:42:02;2.53;;;2.17;;
13785;SDS011;47474;48.824;9.384;2023-07-13T05:44:29;3.92;;;2.40;;
13785;SDS011;47474;48.824;9.384;2023-07-13T05:46:56;2.47;;;1.80;;
13785;SDS011;47474;48.824;9.384;2023-07-13T05:49:23;1.83;;;1.60;;
13785;SDS011;47474;48.824;9.384;2023-07-13T05:51:49;1.80;;;1.60;;
13785;SDS011;47474;48.824;9.384;2023-07-13T05:54:16;3.70;;;1.90;;
13785;SDS011;47474;48.824;9.384;2023-07-13T05:56:44;4.75;;;1.60;;
13785;SDS011;47474;48.824;9.384;2023-07-13T05:59:10;3.28;;;1.88;;
13785;SDS011;47474;48.824;9.384;2023-07-13T06:01:38;3.53;;;1.80;;
13785;SDS011;47474;48.824;9.384;2023-07-13T06:04:05;3.00;;;1.85;;
13785;SDS011;47474;48.824;9.384;2023-07-13T06:06:31;3.67;;;2.00;;
13785;SDS011;47474;48.824;9.384;2023-07-13T06:08:58;4.18;;;1.73;;
13785;SDS011;47474;48.824;9.384;2023-07-13T06:11:25;1.90;;;1.70;;
13785;SDS011;47474;48.824;9.384;2023-07-13T06:13:56;3.78;;;1.80;;
13785;SDS011;47474;48.824;9.384;2023-07-13T06:16:23;2.75;;;1.70;;
13785;SDS011;47474;48.824;9.384;2023-07-13T06:18:49;3.55;;;2.33;;
13785;SDS011;47474;48.824;9.384;2023-07-13T06:21:17;4.38;;;2.20;;
13785;SDS011;47474;48.824;9.384;2023-07-13T06:23:45;4.78;;;1.85;;
13785;SDS011;47474;48.824;9.384;2023-07-13T06:26:13;3.42;;;2.33;;
13785;SDS011;47474;48.824;9.384;2023-07-13T06:28:40;3.47;;;1.90;;
13785;SDS011;47474;48.824;9.384;2023-07-13T06:31:08;3.85;;;1.95;;
13785;SDS011;47474;48.824;9.384;2023-07-13T06:33:36;4.65;;;2.05;;
13785;SDS011;47474;48.824;9.384;2023-07-13T06:36:03;3.15;;;1.88;;
13785;SDS011;47474;48.824;9.384;2023-07-13T06:39:09;3.60;;;1.85;;
13785;SDS011;47474;48.824;9.384;2023-07-13T06:44:40;7.25;;;2.45;;
13785;SDS011;47474;48.824;9.384;2023-07-13T06:47:08;6.10;;;1.88;;
13785;SDS011;47474;48.824;9.384;2023-07-13T06:49:35;3.75;;;2.05;;
13785;SDS011;47474;48.824;9.384;2023-07-13T06:52:01;4.50;;;1.90;;
13785;SDS011;47474;48.824;9.384;2023-07-13T06:54:29;3.85;;;1.90;;
13785;SDS011;47474;48.824;9.384;2023-07-13T06:56:55;2.38;;;1.92;;
13785;SDS011;47474;48.824;9.384;2023-07-13T06:59:22;2.97;;;1.77;;
13785;SDS011;47474;48.824;9.384;2023-07-13T07:01:48;2.80;;;1.88;;
13785;SDS011;47474;48.824;9.384;2023-07-13T07:04:16;2.25;;;1.73;;
13785;SDS011;47474;48.824;9.384;2023-07-13T07:06:42;3.60;;;1.73;;
13785;SDS011;47474;48.824;9.384;2023-07-13T07:09:09;4.10;;;1.77;;
13785;SDS011;47474;48.824;9.384;2023-07-13T07:11:36;3.05;;;1.88;;
13785;SDS011;47474;48.824;9.384;2023-07-13T07:14:03;2.97;;;1.77;;
13785;SDS011;47474;48.824;9.384;2023-07-13T07:16:29;2.53;;;1.90;;
13785;SDS011;47474;48.824;9.384;2023-07-13T07:18:56;2.25;;;1.75;;
13785;SDS011;47474;48.824;9.384;2023-07-13T07:21:24;2.30;;;1.67;;
13785;SDS011;47474;48.824;9.384;2023-07-13T07:23:51;2.95;;;1.85;;
13785;SDS011;47474;48.824;9.384;2023-07-13T07:26:18;2.15;;;1.55;;
13785;SDS011;47474;48.824;9.384;2023-07-13T07:28:44;2.92;;;1.70;;
13785;SDS011;47474;48.824;9.384;2023-07-13T07:31:11;1.88;;;1.58;;
13785;SDS011;47474;48.824;9.384;2023-07-13T07:33:37;2.83;;;1.50;;
13785;SDS011;47474;48.824;9.384;2023-07-13T07:36:04;2.67;;;1.60;;
13785;SDS011;47474;48.824;9.384;2023-07-13T07:38:32;4.57;;;1.52;;
13785;SDS011;47474;48.824;9.384;2023-07-13T07:41:00;1.77;;;1.40;;
13785;SDS011;47474;48.824;9.384;2023-07-13T07:43:28;5.22;;;1.90;;
13785;SDS011;47474;48.824;9.384;2023-07-13T07:45:55;2.10;;;1.40;;
13785;SDS011;47474;48.824;9.384;2023-07-13T07:48:21;2.65;;;1.38;;
13785;SDS011;47474;48.824;9.384;2023-07-13T07:50:48;2.95;;;1.50;;
13785;SDS011;47474;48.824;9.384;2023-07-13T07:53:15;3.15;;;1.20;;
13785;SDS011;47474;48.824;9.384;2023-07-13T07:55:42;2.88;;;1.25;;
13785;SDS011;47474;48.824;9.384;2023-07-13T07:58:10;5.03;;;1.50;;
13785;SDS011;47474;48.824;9.384;2023-07-13T08:00:36;3.63;;;1.30;;
13785;SDS011;47474;48.824;9.384;2023-07-13T08:03:03;2.78;;;1.17;;
13785;SDS011;47474;48.824;9.384;2023-07-13T08:05:29;2.40;;;1.45;;
13785;SDS011;47474;48.824;9.384;2023-07-13T08:07:56;2.17;;;1.30;;
13785;SDS011;47474;48.824;9.384;2023-07-13T08:10:22;1.63;;;1.10;;
13785;SDS011;47474;48.824;9.384;2023-07-13T08:12:50;1.48;;;1.15;;
13785;SDS011;47474;48.824;9.384;2023-07-13T08:15:17;3.40;;;1.38;;
13785;SDS011;47474;48.824;9.384;2023-07-13T08:17:45;5.60;;;1.50;;
13785;SDS011;47474;48.824;9.384;2023-07-13T08:20:12;2.17;;;1.25;;
13785;SDS011;47474;48.824;9.384;2023-07-13T08:22:39;4.18;;;1.83;;
13785;SDS011;47474;48.824;9.384;2023-07-13T08:25:05;4.70;;;1.80;;
13785;SDS011;47474;48.824;9.384;2023-07-13T08:27:33;2.15;;;1.40;;
13785;SDS011;47474;48.824;9.384;2023-07-13T08:30:01;2.28;;;1.23;;
13785;SDS011;47474;48.824;9.384;2023-07-13T08:32:28;3.38;;;1.42;;
13785;SDS011;47474;48.824;9.384;2023-07-13T08:34:55;3.65;;;1.27;;
13785;SDS011;47474;48.824;9.384;2023-07-13T08:37:21;2.05;;;1.50;;
13785;SDS011;47474;48.824;9.384;2023-07-13T08:39:48;4.15;;;1.50;;
13785;SDS011;47474;48.824;9.384;2023-07-13T08:42:17;2.38;;;1.40;;
13785;SDS011;47474;48.824;9.384;2023-07-13T08:44:50;2.03;;;1.40;;
13785;SDS011;47474;48.824;9.384;2023-07-13T08:47:24;4.38;;;1.77;;
13785;SDS011;47474;48.824;9.384;2023-07-13T08:49:52;4.45;;;1.60;;
13785;SDS011;47474;48.824;9.384;2023-07-13T08:52:25;2.90;;;1.42;;
13785;SDS011;47474;48.824;9.384;2023-07-13T08:54:56;2.15;;;1.65;;
13785;SDS011;47474;48.824;9.384;2023-07-13T08:57:26;3.40;;;1.50;;
13785;SDS011;47474;48.824;9.384;2023-07-13T08:59:56;2.75;;;1.38;;
13785;SDS011;47474;48.824;9.384;2023-07-13T09:02:26;3.08;;;1.48;;
13785;SDS011;47474;48.824;9.384;2023-07-13T09:04:56;4.32;;;1.77;;
13785;SDS011;47474;48.824;9.384;2023-07-13T09:07:28;5.28;;;1.50;;
13785;SDS011;47474;48.824;9.384;2023-07-13T09:10:11;3.15;;;1.45;;
13785;SDS011;47474;48.824;9.384;2023-07-13T09:12:45;3.95;;;1.70;;
13785;SDS011;47474;48.824;9.384;2023-07-13T09:15:21;5.00;;;1.90;;
13785;SDS011;47474;48.824;9.384;2023-07-13T09:17:51;5.20;;;1.48;;
13785;SDS011;47474;48.824;9.384;2023-07-13T09:20:22;3.03;;;1.40;;
13785;SDS011;47474;48.824;9.384;2023-07-13T09:22:52;2.55;;;1.50;;
13785;SDS011;47474;48.824;9.384;2023-07-13T09:25:21;2.20;;;1.50;;
13785;SDS011;47474;48.824;9.384;2023-07-13T09:27:51;4.35;;;1.35;;
13785;SDS011;47474;48.824;9.384;2023-07-13T09:30:28;2.60;;;1.35;;
13785;SDS011;47474;48.824;9.384;2023-07-13T09:33:01;3.20;;;1.60;;
13785;SDS011;47474;48.824;9.384;2023-07-13T09:35:28;2.88;;;1.30;;
13785;SDS011;47474;48.824;9.384;2023-07-13T09:37:59;2.53;;;1.60;;
13785;SDS011;47474;48.824;9.384;2023-07-13T09:40:32;2.70;;;1.40;;
13785;SDS011;47474;48.824;9.384;2023-07-13T09:43:04;2.95;;;1.40;;
13785;SDS011;47474;48.824;9.384;2023-07-13T09:45:33;3.10;;;1.40;;
13785;SDS011;47474;48.824;9.384;2023-07-13T09:48:05;4.10;;;1.35;;
13785;SDS011;47474;48.824;9.384;2023-07-13T09:50:33;1.65;;;1.15;;
13785;SDS011;47474;48.824;9.384;2023-07-13T09:53:00;2.53;;;1.50;;
13785;SDS011;47474;48.824;9.384;2023-07-13T09:55:28;1.98;;;1.40;;
13785;SDS011;47474;48.824;9.384;2023-07-13T09:57:56;2.75;;;1.60;;
13785;SDS011;47474;48.824;9.384;2023-07-13T10:00:24;2.53;;;1.27;;
13785;SDS011;47474;48.824;9.384;2023-07-13T10:03:02;4.35;;;1.73;;
13785;SDS011;47474;48.824;9.384;2023-07-13T10:05:38;4.32;;;1.88;;
13785;SDS011;47474;48.824;9.384;2023-07-13T10:08:05;2.63;;;1.40;;
13785;SDS011;47474;48.824;9.384;2023-07-13T10:10:33;3.35;;;1.35;;
13785;SDS011;47474;48.824;9.384;2023-07-13T10:13:00;2.40;;;1.40;;
13785;SDS011;47474;48.824;9.384;2023-07-13T10:15:29;3.90;;;1.52;;
13785;SDS011;47474;48.824;9.384;2023-07-13T10:17:56;3.15;;;1.30;;
13785;SDS011;47474;48.824;9.384;2023-07-13T10:20:23;1.92;;;1.30;;
13785;SDS011;47474;48.824;9.384;2023-07-13T10:22:52;2.92;;;1.48;;
13785;SDS011;47474;48.824;9.384;2023-07-13T10:25:21;2.13;;;1.42;;
13785;SDS011;47474;48.824;9.384;2023-07-13T10:27:50;2.95;;;1.50;;
13785;SDS011;47474;48.824;9.384;2023-07-13T10:30:19;2.55;;;1.40;;
13785;SDS011;47474;48.824;9.384;2023-07-13T10:32:47;4.80;;;1.60;;
13785;SDS011;47474;48.824;9.384;2023-07-13T10:35:15;2.97;;;1.23;;
13785;SDS011;47474;48.824;9.384;2023-07-13T10:37:45;5.53;;;1.75;;
13785;SDS011;47474;48.824;9.384;2023-07-13T10:40:18;2.60;;;1.63;;
13785;SDS011;47474;48.824;9.384;2023-07-13T10:42:48;3.50;;;1.50;;
13785;SDS011;47474;48.824;9.384;2023-07-13T10:45:17;3.13;;;1.65;;
13785;SDS011;47474;48.824;9.384;2023-07-13T10:47:46;2.08;;;1.30;;
13785;SDS011;47474;48.824;9.384;2023-07-13T10:50:15;2.13;;;1.30;;
13785;SDS011;47474;48.824;9.384;2023-07-13T10:52:45;3.55;;;1.50;;
13785;SDS011;47474;48.824;9.384;2023-07-13T10:55:36;3.17;;;1.55;;
13785;SDS011;47474;48.824;9.384;2023-07-13T10:58:11;3.15;;;1.60;;
13785;SDS011;47474;48.824;9.384;2023-07-13T11:00:44;3.88;;;1.52;;
13785;SDS011;47474;48.824;9.384;2023-07-13T11:03:14;3.17;;;1.67;;
13785;SDS011;47474;48.824;9.384;2023-07-13T11:05:43;2.65;;;1.50;;
13785;SDS011;47474;48.824;9.384;2023-07-13T11:08:13;2.80;;;1.50;;
13785;SDS011;47474;48.824;9.384;2023-07-13T11:10:48;1.67;;;1.40;;
13785;SDS011;47474;48.824;9.384;2023-07-13T11:16:09;3.50;;;1.50;;
13785;SDS011;47474;48.824;9.384;2023-07-13T11:18:38;1.40;;;1.15;;
13785;SDS011;47474;48.824;9.384;2023-07-13T11:21:15;1.77;;;1.35;;
13785;SDS011;47474;48.824;9.384;2023-07-13T11:23:44;1.60;;;1.50;;
13785;SDS011;47474;48.824;9.384;2023-07-13T11:29:12;4.07;;;1.55;;
13785;SDS011;47474;48.824;9.384;2023-07-13T11:31:51;4.95;;;1.42;;
13785;SDS011;47474;48.824;9.384;2023-07-13T11:34:21;2.55;;;1.48;;
13785;SDS011;47474;48.824;9.384;2023-07-13T11:36:51;2.90;;;1.45;;
13785;SDS011;47474;48.824;9.384;2023-07-13T11:39:19;2.97;;;1.40;;
13785;SDS011;47474;48.824;9.384;2023-07-13T11:41:50;3.33;;;1.60;;
13785;SDS011;47474;48.824;9.384;2023-07-13T11:44:19;2.38;;;1.42;;
13785;SDS011;47474;48.824;9.384;2023-07-13T11:46:47;5.78;;;1.65;;
13785;SDS011;47474;48.824;9.384;2023-07-13T11:49:16;3.05;;;1.50;;
13785;SDS011;47474;48.824;9.384;2023-07-13T11:51:43;2.33;;;1.50;;
13785;SDS011;47474;48.824;9.384;2023-07-13T11:54:15;3.45;;;1.30;;
13785;SDS011;47474;48.824;9.384;2023-07-13T11:56:50;2.90;;;1.67;;
13785;SDS011;47474;48.824;9.384;2023-07-13T11:59:17;2.67;;;1.42;;
13785;SDS011;47474;48.824;9.384;2023-07-13T12:01:45;3.40;;;1.48;;
13785;SDS011;47474;48.824;9.384;2023-07-13T12:04:18;2.67;;;1.42;;
13785;SDS011;47474;48.824;9.384;2023-07-13T12:06:47;1.98;;;1.23;;
13785;SDS011;47474;48.824;9.384;2023-07-13T12:09:20;5.13;;;1.48;;
13785;SDS011;47474;48.824;9.384;2023-07-13T12:11:51;4.03;;;2.10;;
13785;SDS011;47474;48.824;9.384;2023-07-13T12:14:18;4.03;;;1.77;;
13785;SDS011;47474;48.824;9.384;2023-07-13T12:16:45;3.47;;;1.30;;
13785;SDS011;47474;48.824;9.384;2023-07-13T12:19:16;2.45;;;1.30;;
13785;SDS011;47474;48.824;9.384;2023-07-13T12:21:44;2.97;;;1.73;;
13785;SDS011;47474;48.824;9.384;2023-07-13T12:24:13;3.45;;;1.55;;
13785;SDS011;47474;48.824;9.384;2023-07-13T12:26:40;3.45;;;1.63;;
13785;SDS011;47474;48.824;9.384;2023-07-13T12:29:11;3.58;;;1.70;;
13785;SDS011;47474;48.824;9.384;2023-07-13T12:31:42;2.15;;;1.50;;
13785;SDS011;47474;48.824;9.384;2023-07-13T12:34:10;2.05;;;1.30;;
13785;SDS011;47474;48.824;9.384;2023-07-13T12:36:38;3.17;;;1.63;;
13785;SDS011;47474;48.824;9.384;2023-07-13T12:39:12;2.30;;;1.50;;
13785;SDS011;47474;48.824;9.384;2023-07-13T12:41:40;2.05;;;1.50;;
13785;SDS011;47474;48.824;9.384;2023-07-13T12:44:11;4.65;;;1.58;;
13785;SDS011;47474;48.824;9.384;2023-07-13T12:46:38;4.90;;;1.75;;
13785;SDS011;47474;48.824;9.384;2023-07-13T12:49:05;4.63;;;1.42;;
13785;SDS011;47474;48.824;9.384;2023-07-13T12:51:33;2.47;;;1.55;;
13785;SDS011;47474;48.824;9.384;2023-07-13T12:54:05;4.55;;;1.98;;
13785;SDS011;47474;48.824;9.384;2023-07-13T12:56:32;2.92;;;1.52;;
13785;SDS011;47474;48.824;9.384;2023-07-13T12:59:01;3.30;;;1.30;;
13785;SDS011;47474;48.824;9.384;2023-07-13T13:01:32;2.45;;;1.48;;
13785;SDS011;47474;48.824;9.384;2023-07-13T13:04:03;3.80;;;1.67;;
13785;SDS011;47474;48.824;9.384;2023-07-13T13:06:31;6.38;;;2.00;;
13785;SDS011;47474;48.824;9.384;2023-07-13T13:09:01;1.83;;;1.58;;
13785;SDS011;47474;48.824;9.384;2023-07-13T13:11:29;3.17;;;1.65;;
13785;SDS011;47474;48.824;9.384;2023-07-13T13:13:57;2.53;;;1.45;;
13785;SDS011;47474;48.824;9.384;2023-07-13T13:16:28;1.88;;;1.52;;
13785;SDS011;47474;48.824;9.384;2023-07-13T13:18:59;5.35;;;1.60;;
13785;SDS011;47474;48.824;9.384;2023-07-13T13:21:27;5.45;;;1.75;;
13785;SDS011;47474;48.824;9.384;2023-07-13T13:23:54;2.70;;;1.40;;
13785;SDS011;47474;48.824;9.384;2023-07-13T13:26:21;4.88;;;1.60;;
13785;SDS011;47474;48.824;9.384;2023-07-13T13:28:48;5.28;;;1.67;;
13785;SDS011;47474;48.824;9.384;2023-07-13T13:31:15;1.90;;;1.60;;
13785;SDS011;47474;48.824;9.384;2023-07-13T13:33:44;2.97;;;1.88;;
13785;SDS011;47474;48.824;9.384;2023-07-13T13:36:13;2.88;;;1.40;;
13785;SDS011;47474;48.824;9.384;2023-07-13T13:38:42;2.88;;;1.65;;
13785;SDS011;47474;48.824;9.384;2023-07-13T13:41:09;3.15;;;1.40;;
13785;SDS011;47474;48.824;9.384;2023-07-13T13:43:36;4.05;;;1.50;;
13785;SDS011;47474;48.824;9.384;2023-07-13T13:46:03;2.15;;;1.50;;
13785;SDS011;47474;48.824;9.384;2023-07-13T13:48:39;4.85;;;1.45;;
13785;SDS011;47474;48.824;9.384;2023-07-13T13:51:11;6.13;;;1.80;;
13785;SDS011;47474;48.824;9.384;2023-07-13T13:53:39;2.53;;;1.60;;
13785;SDS011;47474;48.824;9.384;2023-07-13T13:56:07;5.28;;;1.67;;
13785;SDS011;47474;48.824;9.384;2023-07-13T13:58:33;3.97;;;1.60;;
13785;SDS011;47474;48.824;9.384;2023-07-13T14:01:00;3.00;;;1.75;;
13785;SDS011;47474;48.824;9.384;2023-07-13T14:03:27;2.40;;;1.45;;
13785;SDS011;47474;48.824;9.384;2023-07-13T14:05:54;3.80;;;1.80;;
13785;SDS011;47474;48.824;9.384;2023-07-13T14:08:23;2.80;;;1.83;;
13785;SDS011;47474;48.824;9.384;2023-07-13T14:10:51;2.38;;;1.50;;
13785;SDS011;47474;48.824;9.384;2023-07-13T14:13:20;3.95;;;1.50;;
13785;SDS011;47474;48.824;9.384;2023-07-13T14:15:51;2.55;;;1.42;;
13785;SDS011;47474;48.824;9.384;2023-07-13T14:18:18;2.60;;;1.52;;
13785;SDS011;47474;48.824;9.384;2023-07-13T14:20:44;2.60;;;1.40;;
13785;SDS011;47474;48.824;9.384;2023-07-13T14:23:12;2.88;;;1.55;;
13785;SDS011;47474;48.824;9.384;2023-07-13T14:25:40;3.22;;;1.30;;
13785;SDS011;47474;48.824;9.384;2023-07-13T14:28:12;1.77;;;1.58;;
13785;SDS011;47474;48.824;9.384;2023-07-13T14:30:45;4.53;;;1.70;;
13785;SDS011;47474;48.824;9.384;2023-07-13T14:33:12;2.45;;;1.33;;
13785;SDS011;47474;48.824;9.384;2023-07-13T14:35:39;3.13;;;1.70;;
13785;SDS011;47474;48.824;9.384;2023-07-13T14:38:07;4.68;;;1.75;;
13785;SDS011;47474;48.824;9.384;2023-07-13T14:40:36;2.58;;;1.60;;
13785;SDS011;47474;48.824;9.384;2023-07-13T14:43:04;1.73;;;1.25;;
13785;SDS011;47474;48.824;9.384;2023-07-13T14:45:33;2.83;;;1.60;;
13785;SDS011;47474;48.824;9.384;2023-07-13T14:47:59;2.53;;;1.50;;
13785;SDS011;47474;48.824;9.384;2023-07-13T14:50:27;2.42;;;1.60;;
13785;SDS011;47474;48.824;9.384;2023-07-13T14:52:57;4.65;;;2.00;;
13785;SDS011;47474;48.824;9.384;2023-07-13T14:55:23;1.50;;;1.33;;
13785;SDS011;47474;48.824;9.384;2023-07-13T14:57:51;3.63;;;1.50;;
13785;SDS011;47474;48.824;9.384;2023-07-13T15:00:20;4.15;;;1.45;;
13785;SDS011;47474;48.824;9.384;2023-07-13T15:02:48;2.78;;;1.60;;
13785;SDS011;47474;48.824;9.384;2023-07-13T15:05:18;3.55;;;1.50;;
13785;SDS011;47474;48.824;9.384;2023-07-13T15:07:46;2.65;;;1.45;;
13785;SDS011;47474;48.824;9.384;2023-07-13T15:10:16;1.85;;;1.40;;
13785;SDS011;47474;48.824;9.384;2023-07-13T15:12:45;1.98;;;1.60;;
13785;SDS011;47474;48.824;9.384;2023-07-13T15:15:12;5.72;;;1.63;;